RJCNRJCH

Guest
Details From RJCN - NAKASHIBETSU
To RJCH - HAKODATE
Flight Number -
Tags generated
Created
Modified
Stats Distance 222 nm / 411 km
Max Altitude 26,400 ft / 8,047 m
Waypoints 5
Social Downloads 1
Likes 0
Share VATSIM

Download

Looking for another format? Having issues loading an existing format? Contact us
Advertisement - Login to hide

Notes

Basic altitude profile: - Ascent Rate: 2500ft/min - Ascent Speed: 250kts - Cruise Altitude: 35000ft - Cruise Speed: 420kts - Descent Rate: 1500ft/min - Descent Speed: 250kts Options: - Use NATs: yes - Use PACOTS: yes - Use low airways: yes - Use high airways: yes

Route

RJCN BISEI V5 CHE Y12 HWE RJCH

ID Type Via Altitude Latitude Longitude Leg Dist Tot Dist Heading (true) Name
O RJCN APT - 0 ft / 0 m 43.57743˚ 144.95979˚ - 0 nm - NAKASHIBETSU
BISEI FIX - 26,400 ft / 8,047 m 42.86518˚ 142.92879˚ 98 nm 98 nm 245° / 244° -
CHE VOR V5 (AWY-HI) 14,500 ft / 4,420 m 42.69990˚ 141.68617˚ 55 nm 154 nm 260° / 259° CHITOSE VOR-DME
HWE VOR Y12 (AWY-LO) 14,000 ft / 4,267 m 41.77403˚ 140.83222˚ 67 nm 221 nm 215° / 214° HAKODATE VOR-DME
O RJCH APT - 0 ft / 0 m 41.77016˚ 140.82203˚ 0 nm 222 nm 243° / 243° HAKODATE

Altitude Profile

Advertisement - Login to hide

Weather


0- 5 10 15 20 25 30 35+ Temperature / ° C

Clouds and Precipitation
Forecast for 2018-05-22 00:00 UTC. Updated 3 hours ago

Ground ~20,000 ft ~40,000 ft Winds

RJCN

Details ICAO RJCN (SHB)
Name NAKASHIBETSU
Region Japan
Timezone Asia/Tokyo (UTC+9.0)
Stats Elevation 234 ft / 71 m (AMSL)
Location 43.577427° 144.959791°
Runways 1
Magnetic Variation 8.944° W

METAR

RJCN 220200Z 24012KT 9999 FEW040 21/06 Q1015

Decode

TAF

Not found

Departure Runways

ID Width Length Bearing (true) Bearing (mag) Surface Threshold Offset Overrun Length
08 150 ft / 46 m 6,549 ft / 1,996 m 70.96° 79.90° Asphalt 0 ft / 0 m 200 ft / 61 m
26 150 ft / 46 m 6,549 ft / 1,996 m 250.97° 259.91° Asphalt 0 ft / 0 m 200 ft / 61 m

RJCH

Details ICAO RJCH (HKD)
Name HAKODATE
Region Japan
Timezone Asia/Tokyo (UTC+9.0)
Stats Elevation 151 ft / 46 m (AMSL)
Location 41.770161° 140.822030°
Runways 1
Magnetic Variation 9.257° W

METAR

RJCH 220200Z 21009KT 9999 FEW040 14/10 Q1018

Decode

TAF

TAF RJCH 212309Z 2200/2306 22010KT 9999 FEW030 BECMG 2209/2211 06006KT

Decode

Destination Runways

ID Width Length Bearing (true) Bearing (mag) Surface Threshold Offset Overrun Length
12 150 ft / 46 m 9,814 ft / 2,991 m 108.09° 117.35° Asphalt 0 ft / 0 m 197 ft / 60 m
30 150 ft / 46 m 9,814 ft / 2,991 m 288.11° 297.37° Asphalt 0 ft / 0 m 197 ft / 60 m

Approach Navaids

Runway Type Ident Frequency Range Bearing (true) Bearing (mag) Slope Elevation
12 Localiser IHL 109.30 MHz 18 nm / 33 km 108.05° 117.31° - 51 ft / 16 m (AMSL)
12 Glidescope IHL 109.30 MHz 10 nm / 19 km 108.10° 117.36° 3.00° 151 ft / 46 m (AMSL)
12 DME IHL 109.30 MHz 18 nm / 33 km - - - 111 ft / 34 m (AMSL)

Popular Alternatives